Time;durP1;ratioP1;P1;durP2;ratioP2;P2;SDS_P1;SDS_P2;PMS_P1;PMS_P2;Temp;Humidity;BMP_temperature;BMP_pressure;BME280_temperature;BME280_humidity;BME280_pressure;Samples;Min_cycle;Max_cycle;Signal;HPM_P1;HPM_P2
2023/01/21 00:02:17;;;;;;;;;;;;;;;0.12;73.76;98667.94;7371380;19;19946;-83
2023/01/21 00:04:45;;;;;;;;;;;;;;;-0.06;73.94;98672.38;7371320;19;20620;-83
2023/01/21 00:07:12;;;;;;;;;;;;;;;-0.01;74.51;98678.16;7373395;19;19930;-83
2023/01/21 00:09:39;;;;;;;;;;;;;;;0.07;74.62;98684.72;7368266;19;19914;-83
2023/01/21 00:12:06;;;;;;;;;;;;;;;0.02;73.97;98676.34;7372625;19;20197;-83
2023/01/21 00:14:32;;;;;;;;;;;;;;;-0.06;75.02;98679.34;7369444;19;19918;-83
2023/01/21 00:16:59;;;;;;;;;;;;;;;0.16;74.03;98677.28;7370549;19;19989;-84
2023/01/21 00:19:27;;;;;;;;;;;;;;;0.17;74.68;98683.31;7365664;19;20252;-83
2023/01/21 00:21:54;;;;;;;;;;;;;;;0.19;73.44;98677.09;7368951;19;19922;-83
2023/01/21 00:24:23;;;;;;;;;;;;;;;0.11;73.87;98681.88;7372887;19;19918;-83
2023/01/21 00:26:51;;;;;;;;;;;;;;;0.13;73.49;98677.44;7366298;19;20695;-83
2023/01/21 00:29:19;;;;;;;;;;;;;;;0.21;73.73;98688.28;7370054;19;19938;-83
2023/01/21 00:31:45;;;;;;;;;;;;;;;0.24;73.50;98692.47;7369862;19;20270;-83
2023/01/21 00:34:12;;;;;;;;;;;;;;;0.22;73.94;98686.50;7370800;19;19915;-83
2023/01/21 00:36:39;;;;;;;;;;;;;;;0.13;73.89;98689.59;7371819;19;19926;-83
2023/01/21 00:39:05;;;;;;;;;;;;;;;0.13;73.71;98689.59;7378151;19;19914;-83
2023/01/21 00:41:32;;;;;;;;;;;;;;;0.19;73.62;98690.13;7380421;19;19910;-83
2023/01/21 00:43:59;;;;;;;;;;;;;;;0.11;73.99;98691.47;7382745;19;19951;-83
2023/01/21 00:46:26;;;;;;;;;;;;;;;0.09;73.19;98699.34;7382275;19;19922;-84
2023/01/21 00:48:54;;;;;;;;;;;;;;;-0.04;74.42;98699.16;7377828;19;19967;-83
2023/01/21 00:51:21;;;;;;;;;;;;;;;0.13;73.84;98694.78;7381138;19;19923;-83
2023/01/21 00:53:48;;;;;;;;;;;;;;;0.11;73.85;98700.09;7376895;19;19925;-84
2023/01/21 00:56:14;;;;;;;;;;;;;;;0.16;73.54;98695.50;7381320;19;19919;-83
2023/01/21 00:58:42;;;;;;;;;;;;;;;0.17;73.24;98699.75;7364547;19;20364;-83
2023/01/21 01:01:13;;;;;;;;;;;;;;;0.02;73.15;98702.34;7376857;19;20915;-84
2023/01/21 01:03:40;;;;;;;;;;;;;;;0.08;73.41;98700.28;7371289;19;20513;-83
2023/01/21 01:06:08;;;;;;;;;;;;;;;-0.07;73.64;98699.31;7376756;19;19918;-84
2023/01/21 01:08:34;;;;;;;;;;;;;;;-0.10;73.97;98699.47;7371864;19;20288;-83
2023/01/21 01:11:01;;;;;;;;;;;;;;;-0.06;74.30;98703.59;7377587;19;20013;-83
2023/01/21 01:13:28;;;;;;;;;;;;;;;-0.23;74.17;98708.84;7374105;19;19935;-83
2023/01/21 01:15:56;;;;;;;;;;;;;;;-0.14;74.18;98712.72;7372092;19;21564;-83
2023/01/21 01:18:23;;;;;;;;;;;;;;;-0.23;74.81;98709.69;7378157;19;19935;-84
2023/01/21 01:20:51;;;;;;;;;;;;;;;-0.36;75.48;98716.44;7374744;19;19986;-84
2023/01/21 01:23:17;;;;;;;;;;;;;;;-0.20;75.49;98713.88;7377863;19;19974;-84
2023/01/21 01:25:52;;;;;;;;;;;;;;;-0.16;74.19;98715.38;7369589;19;19918;-84
2023/01/21 01:28:19;;;;;;;;;;;;;;;-0.07;74.15;98719.28;7377973;19;19919;-83
2023/01/21 01:30:46;;;;;;;;;;;;;;;-0.18;73.50;98717.25;7373996;19;19915;-83
2023/01/21 01:33:12;;;;;;;;;;;;;;;-0.26;73.40;98720.25;7378196;19;20376;-83
2023/01/21 01:35:40;;;;;;;;;;;;;;;-0.35;73.46;98722.47;7371683;19;19910;-83
2023/01/21 01:38:08;;;;;;;;;;;;;;;-0.36;74.06;98720.81;7374030;19;19922;-83
2023/01/21 01:40:36;;;;;;;;;;;;;;;-0.42;73.31;98719.38;7377666;19;19922;-84
2023/01/21 01:43:04;;;;;;;;;;;;;;;-0.60;73.23;98728.94;7376766;19;19919;-83
2023/01/21 01:45:31;;;;;;;;;;;;;;;-0.63;73.58;98726.47;7373047;19;20362;-83
2023/01/21 01:47:59;;;;;;;;;;;;;;;-0.67;73.74;98724.94;7370391;19;19918;-83
2023/01/21 01:50:26;;;;;;;;;;;;;;;-0.69;74.92;98737.16;7374961;19;19918;-83
2023/01/21 01:52:56;;;;;;;;;;;;;;;-0.63;74.45;98731.69;7373967;19;20835;-83
2023/01/21 01:55:22;;;;;;;;;;;;;;;-0.73;73.97;98735.66;7378147;19;19918;-83
2023/01/21 01:57:49;;;;;;;;;;;;;;;-0.83;73.74;98737.03;7373614;19;19937;-83
2023/01/21 02:00:16;;;;;;;;;;;;;;;-0.88;74.36;98745.88;7374183;19;19922;-82
2023/01/21 02:03:43;;;;;;;;;;;;;;;-0.78;74.94;98745.44;7374007;19;20267;-82
2023/01/21 02:05:30;;;;;;;;;;;;;;;-0.84;75.08;98749.16;7380215;19;19982;-82
2023/01/21 02:07:57;;;;;;;;;;;;;;;-0.84;74.70;98740.50;7375222;19;20365;-83
2023/01/21 02:10:24;;;;;;;;;;;;;;;-0.87;73.76;98744.09;7378065;19;19927;-83
2023/01/21 02:12:50;;;;;;;;;;;;;;;-0.89;73.91;98749.38;7378166;19;19907;-83
2023/01/21 02:15:17;;;;;;;;;;;;;;;-1.03;73.36;98746.59;7374182;19;19918;-83
2023/01/21 02:17:50;;;;;;;;;;;;;;;-1.02;73.63;98752.66;7372508;19;19918;-82
2023/01/21 02:20:35;;;;;;;;;;;;;;;-1.07;73.70;98752.88;7379093;19;19919;-82
2023/01/21 02:23:29;;;;;;;;;;;;;;;-1.16;74.83;98755.91;7378948;19;19939;-82
2023/01/21 02:26:13;;;;;;;;;;;;;;;-1.38;75.31;98762.09;7375529;19;19918;-83
2023/01/21 02:28:46;;;;;;;;;;;;;;;-1.29;74.96;98757.38;7373700;19;19929;-83
2023/01/21 02:31:17;;;;;;;;;;;;;;;-1.26;74.79;98759.84;7378003;19;19963;-84
2023/01/21 02:33:56;;;;;;;;;;;;;;;-1.29;74.44;98766.03;7366158;19;19918;-83
2023/01/21 02:36:29;;;;;;;;;;;;;;;-1.27;74.75;98764.19;7379139;19;20241;-83
2023/01/21 02:39:02;;;;;;;;;;;;;;;-1.27;75.09;98776.34;7369681;19;22005;-83
2023/01/21 02:41:33;;;;;;;;;;;;;;;-1.46;75.17;98773.75;7375088;19;19925;-83
2023/01/21 02:44:09;;;;;;;;;;;;;;;-1.40;74.65;98771.72;7371740;19;19986;-84
2023/01/21 02:46:38;;;;;;;;;;;;;;;-1.32;75.78;98781.75;7379184;19;19918;-82
2023/01/21 02:49:12;;;;;;;;;;;;;;;-1.22;74.31;98779.56;7369877;19;19919;-82
2023/01/21 02:51:44;;;;;;;;;;;;;;;-1.30;73.69;98776.50;7369088;19;19919;-83
2023/01/21 02:54:14;;;;;;;;;;;;;;;-1.33;74.15;98777.47;7378134;19;19919;-82
2023/01/21 02:56:41;;;;;;;;;;;;;;;-1.37;74.19;98781.09;7373181;19;19919;-82
2023/01/21 02:59:08;;;;;;;;;;;;;;;-1.41;73.95;98785.59;7372487;19;19914;-83
2023/01/21 03:01:49;;;;;;;;;;;;;;;-1.41;73.87;98790.81;7374741;19;19943;-82
2023/01/21 03:04:25;;;;;;;;;;;;;;;-1.43;73.95;98792.63;7370876;19;19922;-84
2023/01/21 03:06:55;;;;;;;;;;;;;;;-1.57;73.40;98795.84;7369792;19;20233;-82
2023/01/21 03:09:25;;;;;;;;;;;;;;;-1.57;73.69;98784.63;7372603;19;19930;-82
2023/01/21 03:12:05;;;;;;;;;;;;;;;-1.62;73.40;98791.78;7371658;19;19929;-82
2023/01/21 03:17:40;;;;;;;;;;;;;;;-1.60;73.54;98796.00;7371799;19;19922;-82
2023/01/21 03:20:10;;;;;;;;;;;;;;;-1.67;73.53;98791.16;7375329;19;20273;-82
2023/01/21 03:22:37;;;;;;;;;;;;;;;-1.70;73.76;98799.06;7370365;19;20517;-85
2023/01/21 03:25:04;;;;;;;;;;;;;;;-1.81;73.25;98802.97;7376992;19;20535;-82
2023/01/21 03:27:31;;;;;;;;;;;;;;;-1.81;73.74;98802.97;7364225;19;19920;-82
2023/01/21 03:29:58;;;;;;;;;;;;;;;-1.80;73.65;98799.47;7374235;19;20324;-82
2023/01/21 03:32:25;;;;;;;;;;;;;;;-1.83;73.92;98806.56;7371171;19;20314;-82
2023/01/21 03:34:52;;;;;;;;;;;;;;;-1.81;73.99;98808.16;7368989;19;19978;-83
2023/01/21 03:37:33;;;;;;;;;;;;;;;-1.90;74.00;98808.56;7369342;19;19918;-81
2023/01/21 03:40:35;;;;;;;;;;;;;;;-1.87;73.78;98815.38;7371052;19;20356;-82
2023/01/21 03:43:01;;;;;;;;;;;;;;;-1.85;73.95;98811.78;7368575;19;19923;-82
2023/01/21 03:45:47;;;;;;;;;;;;;;;-1.89;73.90;98812.84;7368359;19;19921;-81
2023/01/21 03:48:18;;;;;;;;;;;;;;;-1.93;73.53;98808.69;7369749;19;19915;-82
2023/01/21 03:50:46;;;;;;;;;;;;;;;-1.90;73.71;98810.31;7366206;19;20303;-82
2023/01/21 03:53:13;;;;;;;;;;;;;;;-1.96;73.73;98808.84;7370680;19;19938;-83
2023/01/21 03:55:39;;;;;;;;;;;;;;;-2.05;73.72;98810.09;7370498;19;20160;-82
2023/01/21 03:58:06;;;;;;;;;;;;;;;-1.92;74.13;98810.41;7374742;19;19919;-82
2023/01/21 04:00:32;;;;;;;;;;;;;;;-1.90;74.22;98810.31;7367931;19;19930;-84
2023/01/21 04:02:59;;;;;;;;;;;;;;;-1.88;73.76;98813.69;7372751;19;20526;-82
2023/01/21 04:05:26;;;;;;;;;;;;;;;-1.94;73.35;98814.81;7368028;19;20269;-82
2023/01/21 04:07:53;;;;;;;;;;;;;;;-1.90;73.54;98813.75;7369859;19;19922;-82
2023/01/21 04:10:19;;;;;;;;;;;;;;;-1.90;73.77;98818.94;7371644;19;19925;-82
2023/01/21 04:12:46;;;;;;;;;;;;;;;-1.88;73.64;98824.91;7375916;19;20571;-81
2023/01/21 04:15:12;;;;;;;;;;;;;;;-1.86;73.70;98823.09;7382427;19;19927;-83
2023/01/21 04:17:39;;;;;;;;;;;;;;;-1.86;73.37;98822.25;7374666;19;19922;-81
2023/01/21 04:20:06;;;;;;;;;;;;;;;-1.86;74.42;98824.84;7379356;19;19922;-83
2023/01/21 04:22:33;;;;;;;;;;;;;;;-1.84;73.64;98826.47;7373322;19;20705;-81
2023/01/21 04:24:59;;;;;;;;;;;;;;;-1.84;73.44;98829.06;7378726;19;19921;-82
2023/01/21 04:27:26;;;;;;;;;;;;;;;-2.16;74.28;98824.41;7374306;19;20031;-81
2023/01/21 04:29:52;;;;;;;;;;;;;;;-2.20;75.02;98821.09;7376086;19;19922;-82
2023/01/21 04:32:19;;;;;;;;;;;;;;;-2.29;75.49;98821.47;7378427;19;19925;-81
2023/01/21 04:34:46;;;;;;;;;;;;;;;-2.10;74.42;98826.75;7374523;19;20610;-83
2023/01/21 04:37:12;;;;;;;;;;;;;;;-2.15;73.83;98826.09;7377020;19;19942;-81
2023/01/21 04:39:39;;;;;;;;;;;;;;;-2.16;73.66;98837.34;7375909;19;19915;-82
2023/01/21 04:42:05;;;;;;;;;;;;;;;-2.16;73.59;98833.00;7372450;19;19926;-81
2023/01/21 04:44:32;;;;;;;;;;;;;;;-2.11;73.54;98836.25;7376491;19;19989;-83
2023/01/21 04:46:59;;;;;;;;;;;;;;;-2.18;73.46;98836.59;7379843;19;19918;-81
2023/01/21 04:49:25;;;;;;;;;;;;;;;-2.10;74.20;98834.53;7375667;19;19927;-81
2023/01/21 04:51:52;;;;;;;;;;;;;;;-2.10;74.29;98837.13;7380159;19;19922;-81
2023/01/21 04:54:18;;;;;;;;;;;;;;;-2.15;73.39;98839.91;7377967;19;19951;-83
2023/01/21 04:56:45;;;;;;;;;;;;;;;-2.19;73.34;98840.91;7375516;19;19925;-83
2023/01/21 04:59:11;;;;;;;;;;;;;;;-2.19;73.09;98840.09;7376591;19;19934;-82
2023/01/21 05:01:38;;;;;;;;;;;;;;;-2.20;73.58;98841.84;7376345;19;19978;-82
2023/01/21 05:04:05;;;;;;;;;;;;;;;-2.18;73.51;98842.63;7376025;19;19914;-81
2023/01/21 05:06:31;;;;;;;;;;;;;;;-2.19;73.66;98853.03;7376984;19;19922;-82
2023/01/21 05:08:58;;;;;;;;;;;;;;;-2.17;74.42;98839.13;7380346;19;20259;-82
2023/01/21 05:11:25;;;;;;;;;;;;;;;-2.17;74.51;98846.06;7379433;19;19925;-82
2023/01/21 05:13:51;;;;;;;;;;;;;;;-2.19;74.54;98846.09;7373423;19;19918;-82
2023/01/21 05:16:18;;;;;;;;;;;;;;;-2.15;74.39;98842.50;7377013;19;19984;-84
2023/01/21 05:18:47;;;;;;;;;;;;;;;-2.22;73.85;98848.84;7378844;19;19943;-81
2023/01/21 05:21:13;;;;;;;;;;;;;;;-2.34;73.37;98852.78;7380530;19;19918;-81
2023/01/21 05:23:40;;;;;;;;;;;;;;;-2.35;73.48;98853.69;7374128;19;19918;-81
2023/01/21 05:26:06;;;;;;;;;;;;;;;-2.45;73.32;98861.00;7379802;19;20291;-82
2023/01/21 05:28:33;;;;;;;;;;;;;;;-2.49;73.55;98856.84;7374007;19;19918;-81
2023/01/21 05:31:00;;;;;;;;;;;;;;;-2.52;74.26;98856.13;7372862;19;19922;-81
2023/01/21 05:33:28;;;;;;;;;;;;;;;-2.46;74.75;98856.72;7371157;19;19922;-82
2023/01/21 05:35:55;;;;;;;;;;;;;;;-2.44;75.48;98857.50;7373300;19;20356;-82
2023/01/21 05:38:21;;;;;;;;;;;;;;;-2.41;76.14;98869.50;7380258;19;19918;-83
2023/01/21 05:40:48;;;;;;;;;;;;;;;-2.39;76.09;98872.03;7384649;19;19918;-83
2023/01/21 05:43:14;;;;;;;;;;;;;;;-2.33;75.95;98875.19;7381094;19;19922;-82
2023/01/21 05:45:41;;;;;;;;;;;;;;;-2.48;76.42;98868.03;7376458;19;19941;-82
2023/01/21 05:48:08;;;;;;;;;;;;;;;-2.35;76.75;98878.75;7380808;19;19934;-83
2023/01/21 05:50:36;;;;;;;;;;;;;;;-2.33;76.37;98880.38;7374924;19;19921;-84
2023/01/21 05:53:03;;;;;;;;;;;;;;;-2.19;76.06;98884.16;7377536;19;19971;-82
2023/01/21 05:55:30;;;;;;;;;;;;;;;-2.24;76.29;98890.38;7371435;19;20319;-81
2023/01/21 05:57:56;;;;;;;;;;;;;;;-2.33;76.66;98882.97;7375140;19;20009;-81
2023/01/21 06:00:23;;;;;;;;;;;;;;;-2.16;75.95;98876.25;7370671;19;19922;-81
2023/01/21 06:02:49;;;;;;;;;;;;;;;-2.28;75.82;98881.03;7375337;19;19923;-82
2023/01/21 06:05:16;;;;;;;;;;;;;;;-2.25;75.72;98887.84;7378663;19;19919;-80
2023/01/21 06:07:43;;;;;;;;;;;;;;;-2.28;75.75;98893.16;7372165;19;19926;-81
2023/01/21 06:10:09;;;;;;;;;;;;;;;-2.30;76.19;98898.38;7381336;19;19921;-83
2023/01/21 06:12:36;;;;;;;;;;;;;;;-2.32;76.20;98894.16;7373485;19;20368;-83
2023/01/21 06:15:02;;;;;;;;;;;;;;;-2.25;75.99;98896.44;7373439;19;19933;-81
2023/01/21 06:17:29;;;;;;;;;;;;;;;-2.13;75.24;98902.03;7373677;19;19930;-81
2023/01/21 06:19:56;;;;;;;;;;;;;;;-2.21;75.21;98902.38;7372706;19;19929;-83
2023/01/21 06:22:22;;;;;;;;;;;;;;;-2.21;75.02;98904.97;7374383;19;21249;-81
2023/01/21 06:24:49;;;;;;;;;;;;;;;-2.17;75.12;98900.50;7375408;19;19934;-81
2023/01/21 06:27:15;;;;;;;;;;;;;;;-2.17;75.13;98909.09;7377618;19;20254;-81
2023/01/21 06:29:42;;;;;;;;;;;;;;;-2.35;75.23;98909.84;7372309;19;20001;-83
2023/01/21 06:32:09;;;;;;;;;;;;;;;-2.27;75.10;98915.56;7375859;19;19955;-82
2023/01/21 06:34:36;;;;;;;;;;;;;;;-2.28;75.10;98911.28;7366942;19;20375;-83
2023/01/21 06:37:03;;;;;;;;;;;;;;;-2.33;75.30;98913.22;7378249;19;20356;-81
2023/01/21 06:39:29;;;;;;;;;;;;;;;-2.27;75.02;98924.19;7370720;19;19925;-82
2023/01/21 06:41:56;;;;;;;;;;;;;;;-2.25;75.37;98919.78;7372463;19;21590;-82
2023/01/21 06:44:22;;;;;;;;;;;;;;;-2.28;75.42;98925.09;7372050;19;19922;-82
2023/01/21 06:46:49;;;;;;;;;;;;;;;-2.32;75.22;98931.28;7370743;19;20862;-82
2023/01/21 06:49:26;;;;;;;;;;;;;;;-2.31;75.42;98930.41;7369051;19;19915;-82
2023/01/21 06:51:53;;;;;;;;;;;;;;;-2.33;75.13;98937.38;7376210;19;19927;-80
2023/01/21 06:54:20;;;;;;;;;;;;;;;-2.31;75.02;98945.94;7375276;19;19926;-81
2023/01/21 06:56:47;;;;;;;;;;;;;;;-2.48;75.28;98950.94;7375242;19;19938;-81
2023/01/21 06:59:14;;;;;;;;;;;;;;;-2.31;75.08;98951.13;7372695;19;20614;-81
2023/01/21 07:01:43;;;;;;;;;;;;;;;-2.29;74.50;98956.25;7367652;19;19919;-82
2023/01/21 07:04:10;;;;;;;;;;;;;;;-2.23;74.49;98956.00;7369650;19;19982;-82
2023/01/21 07:06:38;;;;;;;;;;;;;;;-2.24;74.38;98965.53;7368252;19;19943;-82
2023/01/21 07:09:05;;;;;;;;;;;;;;;-2.18;74.35;98968.81;7374284;19;19926;-82
2023/01/21 07:11:32;;;;;;;;;;;;;;;-2.16;74.48;98974.75;7374678;19;19990;-82
2023/01/21 07:13:59;;;;;;;;;;;;;;;-2.18;74.02;98985.19;7374736;19;19978;-82
2023/01/21 07:16:25;;;;;;;;;;;;;;;-2.07;74.40;98997.72;7369769;19;20396;-81
2023/01/21 07:18:52;;;;;;;;;;;;;;;-2.10;73.70;98992.66;7370147;19;19931;-82
2023/01/21 07:21:19;;;;;;;;;;;;;;;-1.99;73.85;98998.25;7371011;19;19922;-82
2023/01/21 07:23:46;;;;;;;;;;;;;;;-1.84;74.36;98999.38;7372922;19;19930;-82
2023/01/21 07:26:14;;;;;;;;;;;;;;;-1.64;74.52;99001.97;7375759;19;19915;-82
2023/01/21 07:28:41;;;;;;;;;;;;;;;-1.51;73.91;99001.47;7368563;19;19918;-82
2023/01/21 07:31:09;;;;;;;;;;;;;;;-1.50;73.96;99009.22;7377034;19;20388;-82
2023/01/21 07:33:45;;;;;;;;;;;;;;;-1.36;74.64;99006.84;7369460;19;19922;-82
2023/01/21 07:36:11;;;;;;;;;;;;;;;-1.33;73.64;99011.91;7374935;19;20356;-82
2023/01/21 07:38:38;;;;;;;;;;;;;;;-1.69;74.78;99013.47;7369954;19;20368;-81
2023/01/21 07:41:05;;;;;;;;;;;;;;;-1.83;75.17;99014.03;7378231;19;19911;-82
2023/01/21 07:43:32;;;;;;;;;;;;;;;-2.08;75.69;99014.16;7371731;19;19926;-82
2023/01/21 07:46:01;;;;;;;;;;;;;;;-1.79;76.09;99010.38;7374125;19;20666;-82
2023/01/21 07:48:28;;;;;;;;;;;;;;;-1.47;75.79;99009.06;7371022;19;19970;-82
2023/01/21 07:50:58;;;;;;;;;;;;;;;-1.31;74.72;99009.25;7371342;19;19915;-82
2023/01/21 07:53:26;;;;;;;;;;;;;;;-1.18;74.57;99002.63;7371645;19;19911;-82
2023/01/21 07:55:53;;;;;;;;;;;;;;;-1.21;74.92;99007.09;7372001;19;19930;-82
2023/01/21 07:58:20;;;;;;;;;;;;;;;-1.19;74.45;99010.47;7368480;19;19911;-82
2023/01/21 08:00:46;;;;;;;;;;;;;;;-1.36;74.84;99019.00;7371890;19;20415;-82
2023/01/21 08:03:13;;;;;;;;;;;;;;;-1.50;74.79;99014.41;7374016;19;19933;-82
2023/01/21 08:05:44;;;;;;;;;;;;;;;-1.33;74.84;99026.66;7369069;19;19932;-82
2023/01/21 08:08:11;;;;;;;;;;;;;;;-1.25;74.55;99032.34;7371965;19;19926;-82
2023/01/21 08:10:37;;;;;;;;;;;;;;;-1.16;74.77;99028.50;7368601;19;19941;-82
2023/01/21 08:13:06;;;;;;;;;;;;;;;-1.58;75.57;99021.63;7367699;19;19915;-82
2023/01/21 08:15:33;;;;;;;;;;;;;;;-1.55;75.52;99024.13;7371286;19;19935;-82
2023/01/21 08:17:59;;;;;;;;;;;;;;;-1.57;76.32;99019.00;7371747;19;19919;-82
2023/01/21 08:20:26;;;;;;;;;;;;;;;-1.39;75.94;99025.16;7372937;19;20338;-82
2023/01/21 08:22:53;;;;;;;;;;;;;;;-1.56;75.83;99019.81;7376756;19;19990;-82
2023/01/21 08:25:19;;;;;;;;;;;;;;;-1.52;76.13;99025.75;7379827;19;19918;-82
2023/01/21 08:27:46;;;;;;;;;;;;;;;-1.98;77.14;99015.50;7370460;19;19925;-82
2023/01/21 08:30:13;;;;;;;;;;;;;;;-1.72;77.04;99019.63;7374240;19;19935;-82
2023/01/21 08:32:40;;;;;;;;;;;;;;;-1.55;76.32;99021.53;7370348;19;19921;-82
2023/01/21 08:35:07;;;;;;;;;;;;;;;-1.57;76.15;99021.59;7374332;19;19917;-82
2023/01/21 08:37:34;;;;;;;;;;;;;;;-1.26;75.65;99022.03;7368437;19;20266;-81
2023/01/21 08:40:00;;;;;;;;;;;;;;;-1.11;75.00;99018.78;7374224;19;20018;-82
2023/01/21 08:42:27;;;;;;;;;;;;;;;-1.46;75.04;99021.13;7372122;19;19958;-81
2023/01/21 08:44:55;;;;;;;;;;;;;;;-1.09;74.96;99018.72;7371970;19;19930;-82
2023/01/21 08:47:22;;;;;;;;;;;;;;;-1.15;74.87;99017.22;7372051;19;19982;-81
2023/01/21 08:49:48;;;;;;;;;;;;;;;-0.93;74.82;99020.56;7371648;19;19915;-81
2023/01/21 08:52:19;;;;;;;;;;;;;;;-1.02;74.42;99020.97;7372786;19;19915;-81
2023/01/21 08:54:46;;;;;;;;;;;;;;;-0.89;74.58;99027.31;7367064;19;19932;-81
2023/01/21 08:57:15;;;;;;;;;;;;;;;-0.78;74.19;99016.44;7373068;19;19919;-81
2023/01/21 08:59:42;;;;;;;;;;;;;;;-0.77;74.18;99027.69;7378402;19;19922;-82
2023/01/21 09:02:09;;;;;;;;;;;;;;;-1.18;74.75;99015.63;7384154;19;20456;-81
2023/01/21 09:04:36;;;;;;;;;;;;;;;-0.92;74.72;99031.81;7374223;19;20263;-81
2023/01/21 09:07:02;;;;;;;;;;;;;;;-1.00;74.73;99015.69;7380557;19;19915;-82
2023/01/21 09:09:30;;;;;;;;;;;;;;;-1.15;75.97;99019.84;7370131;19;19919;-82
2023/01/21 09:11:56;;;;;;;;;;;;;;;-0.84;75.36;99021.94;7380477;19;19918;-81
2023/01/21 09:14:23;;;;;;;;;;;;;;;-0.67;74.91;99022.00;7378727;19;19918;-83
2023/01/21 09:16:49;;;;;;;;;;;;;;;-0.59;74.28;99028.59;7382458;19;19918;-81
2023/01/21 09:19:16;;;;;;;;;;;;;;;-0.47;73.92;99026.28;7380849;19;20386;-82
2023/01/21 09:21:43;;;;;;;;;;;;;;;-0.67;74.13;99028.94;7375674;19;19953;-82
2023/01/21 09:24:09;;;;;;;;;;;;;;;-0.88;74.62;99030.75;7375566;19;19933;-81
2023/01/21 09:26:36;;;;;;;;;;;;;;;-0.41;74.09;99032.13;7380856;19;19914;-81
2023/01/21 09:29:03;;;;;;;;;;;;;;;-0.31;73.92;99041.19;7377956;19;19922;-81
2023/01/21 09:31:29;;;;;;;;;;;;;;;-0.26;73.62;99042.66;7379027;19;19943;-82
2023/01/21 09:33:58;;;;;;;;;;;;;;;-0.44;73.50;99048.72;7385038;19;19943;-81
2023/01/21 09:36:26;;;;;;;;;;;;;;;-0.49;74.25;99043.72;7382387;19;19929;-81
2023/01/21 09:38:53;;;;;;;;;;;;;;;-0.35;74.03;99045.66;7379214;19;20392;-81
2023/01/21 09:41:22;;;;;;;;;;;;;;;0.04;73.43;99043.88;7382020;19;19923;-82
2023/01/21 09:43:51;;;;;;;;;;;;;;;0.18;72.93;99046.66;7380540;19;19914;-82
2023/01/21 09:46:39;;;;;;;;;;;;;;;0.15;73.02;99046.81;7383554;19;19914;-82
2023/01/21 09:49:08;;;;;;;;;;;;;;;0.15;72.50;99044.19;7382091;19;19915;-82
2023/01/21 09:51:48;;;;;;;;;;;;;;;0.11;72.83;99045.28;7379585;19;20385;-81
2023/01/21 09:54:20;;;;;;;;;;;;;;;0.16;73.09;99053.72;7382232;19;19930;-81
2023/01/21 09:56:50;;;;;;;;;;;;;;;0.14;73.18;99053.78;7372563;19;19918;-81
2023/01/21 09:59:26;;;;;;;;;;;;;;;0.09;73.66;99047.94;7377493;19;19945;-82
2023/01/21 10:01:54;;;;;;;;;;;;;;;0.36;73.58;99050.97;7373239;19;20289;-81
2023/01/21 10:04:27;;;;;;;;;;;;;;;0.29;73.38;99047.00;7373382;19;19931;-81
2023/01/21 10:06:57;;;;;;;;;;;;;;;0.66;72.51;99042.56;7375989;19;20256;-81
2023/01/21 10:09:29;;;;;;;;;;;;;;;0.50;72.30;99049.44;7373550;19;19923;-81
2023/01/21 10:12:00;;;;;;;;;;;;;;;0.04;74.05;99049.09;7377622;19;19929;-81
2023/01/21 10:14:45;;;;;;;;;;;;;;;0.41;74.01;99045.53;7376996;19;20352;-81
2023/01/21 10:17:30;;;;;;;;;;;;;;;0.53;73.36;99050.16;7379911;19;20297;-81
2023/01/21 10:20:17;;;;;;;;;;;;;;;0.53;73.10;99044.94;7378877;19;19922;-82
2023/01/21 10:22:48;;;;;;;;;;;;;;;0.32;73.02;99044.25;7377093;19;19923;-82
2023/01/21 10:25:22;;;;;;;;;;;;;;;-0.06;74.33;99049.50;7379347;19;19986;-82
2023/01/21 10:27:49;;;;;;;;;;;;;;;0.06;74.74;99047.25;7379416;19;19918;-81
2023/01/21 10:30:23;;;;;;;;;;;;;;;0.38;73.75;99045.69;7386548;19;19914;-81
2023/01/21 10:32:51;;;;;;;;;;;;;;;0.32;73.82;99049.44;7382964;19;19933;-81
2023/01/21 10:35:18;;;;;;;;;;;;;;;0.17;74.24;99056.22;7383906;19;19911;-81
2023/01/21 10:37:47;;;;;;;;;;;;;;;0.30;74.69;99048.66;7383076;19;19911;-81
2023/01/21 10:40:42;;;;;;;;;;;;;;;0.57;74.08;99048.22;7388395;19;19940;-81
2023/01/21 10:43:17;;;;;;;;;;;;;;;0.79;73.17;99047.97;7389857;19;19926;-81
2023/01/21 10:45:54;;;;;;;;;;;;;;;0.65;73.34;99040.88;7390972;19;19922;-81
2023/01/21 10:48:21;;;;;;;;;;;;;;;0.85;73.05;99039.88;7389112;19;19918;-81
2023/01/21 10:50:54;;;;;;;;;;;;;;;0.82;72.70;99040.88;7386135;19;19936;-81
2023/01/21 10:53:32;;;;;;;;;;;;;;;0.87;72.76;99033.66;7396510;19;19918;-81
2023/01/21 10:55:58;;;;;;;;;;;;;;;1.03;72.15;99040.69;7403481;19;19915;-82
2023/01/21 10:58:27;;;;;;;;;;;;;;;0.82;72.38;99042.63;7388565;19;19911;-81
2023/01/21 11:00:54;;;;;;;;;;;;;;;0.69;72.78;99039.81;7391041;19;19923;-82
2023/01/21 11:03:28;;;;;;;;;;;;;;;0.59;73.21;99031.59;7387037;19;19938;-82
2023/01/21 11:05:56;;;;;;;;;;;;;;;0.71;73.27;99035.38;7386506;19;19987;-81
2023/01/21 11:08:23;;;;;;;;;;;;;;;0.68;73.21;99034.66;7384061;19;20630;-82
2023/01/21 11:10:50;;;;;;;;;;;;;;;1.06;72.84;99025.72;7391855;19;19914;-82
2023/01/21 11:13:16;;;;;;;;;;;;;;;1.12;72.49;99024.56;7392874;19;19923;-82
2023/01/21 11:15:43;;;;;;;;;;;;;;;0.85;72.52;99024.25;7379377;19;19922;-81
2023/01/21 11:18:29;;;;;;;;;;;;;;;0.80;72.93;99027.06;7376126;19;19914;-81
2023/01/21 11:20:57;;;;;;;;;;;;;;;1.10;71.99;99024.63;7379825;19;19918;-82
2023/01/21 11:23:25;;;;;;;;;;;;;;;1.12;72.28;99021.13;7382991;19;19918;-82
2023/01/21 11:25:53;;;;;;;;;;;;;;;1.12;71.50;99016.75;7383299;19;19933;-82
2023/01/21 11:28:20;;;;;;;;;;;;;;;0.93;71.51;99013.44;7378782;19;19922;-81
2023/01/21 11:30:47;;;;;;;;;;;;;;;0.92;72.41;99009.13;7380540;19;19922;-81
2023/01/21 11:33:24;;;;;;;;;;;;;;;1.06;72.25;99004.06;7384138;19;19981;-82
2023/01/21 11:35:51;;;;;;;;;;;;;;;1.17;72.01;99001.72;7384832;19;19974;-82
2023/01/21 11:38:23;;;;;;;;;;;;;;;1.38;71.68;98999.72;7383709;19;19921;-82
2023/01/21 11:41:13;;;;;;;;;;;;;;;1.04;71.54;98990.25;7387114;19;19925;-81
2023/01/21 11:43:43;;;;;;;;;;;;;;;1.36;70.71;98996.34;7380822;19;19922;-82
2023/01/21 11:46:20;;;;;;;;;;;;;;;1.38;71.05;98996.28;7384947;19;20329;-80
2023/01/21 11:48:47;;;;;;;;;;;;;;;1.39;70.82;99000.56;7382596;19;19914;-82
2023/01/21 11:51:15;;;;;;;;;;;;;;;1.30;70.85;99000.13;7387408;19;19939;-82
2023/01/21 11:53:41;;;;;;;;;;;;;;;1.27;70.48;98989.88;7383603;19;19923;-82
2023/01/21 11:56:08;;;;;;;;;;;;;;;0.84;71.51;98997.34;7387171;19;19918;-81
2023/01/21 11:58:35;;;;;;;;;;;;;;;0.81;71.89;99000.09;7385408;19;19925;-83
2023/01/21 12:01:03;;;;;;;;;;;;;;;0.85;72.09;98993.81;7383400;19;19918;-82
2023/01/21 12:03:31;;;;;;;;;;;;;;;0.90;72.05;98997.97;7389375;19;19915;-81
2023/01/21 12:05:58;;;;;;;;;;;;;;;0.81;72.17;98994.88;7388682;19;19911;-82
2023/01/21 12:08:31;;;;;;;;;;;;;;;0.75;72.48;98989.16;7396023;19;19915;-82
2023/01/21 12:11:00;;;;;;;;;;;;;;;0.88;71.86;98985.84;7391772;19;19919;-83
2023/01/21 12:13:46;;;;;;;;;;;;;;;0.51;72.56;98989.50;7390173;19;19958;-82
2023/01/21 12:16:12;;;;;;;;;;;;;;;0.49;73.06;98978.31;7392442;19;20203;-83
2023/01/21 12:18:39;;;;;;;;;;;;;;;0.77;72.99;98985.56;7387325;19;19939;-81
2023/01/21 12:21:25;;;;;;;;;;;;;;;0.80;72.92;98985.41;7394218;19;19923;-82
2023/01/21 12:24:11;;;;;;;;;;;;;;;0.61;72.50;98980.31;7388727;19;19914;-83
2023/01/21 12:26:47;;;;;;;;;;;;;;;0.78;72.29;98974.22;7389076;19;19923;-83
2023/01/21 12:29:16;;;;;;;;;;;;;;;0.72;72.81;98981.53;7388343;19;19943;-83
2023/01/21 12:31:47;;;;;;;;;;;;;;;0.85;72.55;98982.56;7389950;19;20042;-83
2023/01/21 12:34:31;;;;;;;;;;;;;;;0.78;72.42;98973.38;7394412;19;19937;-83
2023/01/21 12:37:02;;;;;;;;;;;;;;;0.76;72.49;98975.22;7390650;19;19918;-83
2023/01/21 12:39:33;;;;;;;;;;;;;;;0.55;73.25;98982.38;7391960;19;19929;-82
2023/01/21 12:42:18;;;;;;;;;;;;;;;0.74;73.56;98983.13;7396314;19;20357;-84
2023/01/21 12:44:52;;;;;;;;;;;;;;;0.61;73.34;98980.31;7398862;19;19910;-84
2023/01/21 12:47:24;;;;;;;;;;;;;;;0.55;73.16;98977.16;7394231;19;19957;-83
2023/01/21 12:49:52;;;;;;;;;;;;;;;0.59;73.46;98984.75;7391161;19;19946;-83
2023/01/21 12:52:21;;;;;;;;;;;;;;;0.60;73.78;98977.75;7393226;19;20265;-83
2023/01/21 12:54:59;;;;;;;;;;;;;;;0.50;74.09;98979.16;7385373;19;19921;-83
2023/01/21 12:57:40;;;;;;;;;;;;;;;0.53;74.10;98982.47;7391426;19;19939;-84
2023/01/21 13:00:26;;;;;;;;;;;;;;;0.59;74.21;98984.75;7395102;19;19963;-83
2023/01/21 13:03:05;;;;;;;;;;;;;;;0.52;74.90;98991.16;7388899;19;19915;-84
2023/01/21 13:05:44;;;;;;;;;;;;;;;0.74;74.97;98982.25;7392755;19;19922;-83